KDVN/DVN METAR and TAF weather

Enter ICAO airport designator
Station Type Date Time Source
KDVN METAR 2020/04/07 03:52 UTC NOAA

KDVN 070352Z AUTO 18007KT 10SM SCT039 OVC050 15/13 A2988 RMK AO2 SLP115 T01500128


Station Type Date Time Source
KDVN Decoded METAR 2020/04/07 03:52 UTC NOAA

DAVENPORT MUNICIPAL AIRPORT, IA, United States (KDVN) 41-37N 90-35W 228M
Apr 06, 2020 - 11:52 PM EDT / 2020.04.07 0352 UTC
Wind: from the S (180 degrees) at 8 MPH (7 KT):0
Visibility: 10 mile(s):0
Sky conditions: overcast
Temperature: 59.0 F (15.0 C)
Dew Point: 55.0 F (12.8 C)
Relative Humidity: 86%
Pressure (altimeter): 29.88 in. Hg (1011 hPa)
ob: KDVN 070352Z AUTO 18007KT 10SM SCT039 OVC050 15/13 A2988 RMK AO2 SLP115 T01500128
cycle: 4

Station Type Date Time Source
KDVN TAF UTC NOAA

Error!

Example: see airport list